Time;durP1;ratioP1;P1;durP2;ratioP2;P2;SDS_P1;SDS_P2;PMS_P1;PMS_P2;Temp;Humidity;BMP_temperature;BMP_pressure;BME280_temperature;BME280_humidity;BME280_pressure;Samples;Min_cycle;Max_cycle;Signal;HPM_P1;HPM_P2
2022/10/21 00:02:04;;;;;;;32.78;16.98;;;;;;;13.71;100.00;100674.13;5086537;28;20051;-64
2022/10/21 00:04:31;;;;;;;34.13;17.13;;;;;;;13.71;100.00;100679.41;5095434;28;20027;-65
2022/10/21 00:06:57;;;;;;;35.50;16.98;;;;;;;13.71;100.00;100686.47;5095511;28;20032;-66
2022/10/21 00:09:22;;;;;;;29.45;16.27;;;;;;;13.69;100.00;100681.19;5093594;28;20028;-63
2022/10/21 00:11:47;;;;;;;30.73;17.15;;;;;;;13.66;100.00;100678.53;5093861;28;20038;-66
2022/10/21 00:14:13;;;;;;;37.15;17.52;;;;;;;13.66;100.00;100681.19;5086815;28;20063;-65
2022/10/21 00:16:38;;;;;;;34.17;17.02;;;;;;;13.64;100.00;100677.66;5089701;28;20441;-66
2022/10/21 00:19:03;;;;;;;34.28;17.90;;;;;;;13.63;100.00;100675.88;5094431;28;20039;-65
2022/10/21 00:21:29;;;;;;;30.75;15.82;;;;;;;13.61;100.00;100677.66;5095203;28;20047;-65
2022/10/21 00:23:54;;;;;;;27.73;14.77;;;;;;;13.60;100.00;100667.94;5088339;28;20078;-65
2022/10/21 00:26:19;;;;;;;29.08;14.60;;;;;;;13.59;100.00;100660.88;5094668;28;20035;-65
2022/10/21 00:28:45;;;;;;;37.35;16.42;;;;;;;13.57;100.00;100658.25;5088189;28;20075;-66
2022/10/21 00:31:14;;;;;;;29.48;15.88;;;;;;;13.56;100.00;100664.41;5085932;28;20112;-65
2022/10/21 00:33:40;;;;;;;30.45;14.75;;;;;;;13.53;100.00;100648.56;5094909;28;20030;-65
2022/10/21 00:36:06;;;;;;;32.58;16.77;;;;;;;13.52;100.00;100653.84;5094218;28;20119;-65
2022/10/21 00:38:33;;;;;;;31.05;17.42;;;;;;;13.51;100.00;100655.63;5090093;28;20047;-65
2022/10/21 00:40:59;;;;;;;35.90;16.52;;;;;;;13.49;100.00;100658.22;5079383;28;20028;-65
2022/10/21 00:43:25;;;;;;;35.95;17.52;;;;;;;13.48;100.00;100656.50;5088008;28;20039;-65
2022/10/21 00:46:11;;;;;;;35.17;17.02;;;;;;;13.48;100.00;100660.88;5092435;28;20028;-66
2022/10/21 00:48:52;;;;;;;31.02;17.08;;;;;;;13.45;100.00;100660.88;5092009;28;20526;-66
2022/10/21 00:51:18;;;;;;;34.13;17.60;;;;;;;13.44;100.00;100661.75;5094331;28;20073;-65
2022/10/21 00:53:46;;;;;;;35.63;18.83;;;;;;;13.42;100.00;100645.91;5090603;28;20020;-65
2022/10/21 00:56:15;;;;;;;39.35;18.40;;;;;;;13.39;100.00;100637.97;5092467;28;20055;-65
2022/10/21 00:58:40;;;;;;;37.25;17.35;;;;;;;13.38;100.00;100643.25;5088687;28;20054;-65
2022/10/21 01:01:07;;;;;;;35.42;17.63;;;;;;;13.35;100.00;100636.16;5093713;28;20043;-66
2022/10/21 01:03:33;;;;;;;42.28;18.83;;;;;;;13.32;100.00;100633.50;5093639;28;20020;-66
2022/10/21 01:06:02;;;;;;;37.72;19.00;;;;;;;13.30;100.00;100633.50;5094529;28;20493;-65
2022/10/21 01:08:28;;;;;;;33.13;18.42;;;;;;;13.25;100.00;100624.72;5086002;28;20495;-65
2022/10/21 01:10:54;;;;;;;36.70;18.83;;;;;;;13.23;100.00;100617.66;5094256;28;20020;-65
2022/10/21 01:13:27;;;;;;;31.27;18.10;;;;;;;13.18;100.00;100624.69;5090014;28;20484;-66
2022/10/21 01:16:07;;;;;;;38.83;18.83;;;;;;;13.13;100.00;100620.28;5089712;28;20016;-66
2022/10/21 01:18:42;;;;;;;37.65;18.65;;;;;;;13.09;100.00;100620.22;5091839;28;20028;-66
2022/10/21 01:21:30;;;;;;;38.22;19.75;;;;;;;13.06;100.00;100630.81;5093418;28;20582;-66
2022/10/21 01:23:55;;;;;;;45.42;19.27;;;;;;;13.03;100.00;100626.38;5094104;28;20452;-66
2022/10/21 01:26:58;;;;;;;46.95;19.80;;;;;;;13.02;100.00;100618.47;5089384;28;20035;-65
2022/10/21 01:29:39;;;;;;;35.15;17.33;;;;;;;12.97;100.00;100615.81;5077625;28;20040;-65
2022/10/21 01:32:19;;;;;;;39.47;18.80;;;;;;;12.93;100.00;100609.63;5078956;28;20434;-65
2022/10/21 01:34:56;;;;;;;42.05;19.65;;;;;;;12.94;100.00;100605.22;5092275;28;20036;-66
2022/10/21 01:37:30;;;;;;;37.95;18.60;;;;;;;12.93;100.00;100607.00;5094653;28;20103;-66
2022/10/21 01:40:13;;;;;;;37.90;19.33;;;;;;;12.91;100.00;100598.19;5082815;28;20036;-66
2022/10/21 01:42:47;;;;;;;45.85;19.73;;;;;;;12.89;100.00;100597.31;5076501;28;20526;-65
2022/10/21 01:45:23;;;;;;;39.47;18.13;;;;;;;12.89;100.00;100585.88;5088822;28;20104;-65
2022/10/21 01:47:56;;;;;;;45.60;20.60;;;;;;;12.90;100.00;100591.16;5094450;28;20110;-65
2022/10/21 01:50:26;;;;;;;37.13;18.35;;;;;;;12.92;100.00;100596.44;5092891;28;20016;-66
2022/10/21 01:52:58;;;;;;;42.08;19.40;;;;;;;12.93;100.00;100587.66;5091315;28;20103;-66
2022/10/21 01:55:28;;;;;;;37.75;18.63;;;;;;;12.93;100.00;100593.78;5088458;28;20107;-65
2022/10/21 01:58:01;;;;;;;45.67;19.45;;;;;;;12.95;100.00;100596.44;5080944;28;20102;-65
2022/10/21 02:00:26;;;;;;;32.95;17.45;;;;;;;12.97;100.00;100589.41;5081663;28;20036;-65
2022/10/21 02:02:52;;;;;;;33.97;18.85;;;;;;;12.99;100.00;100592.91;5082111;28;20044;-65
2022/10/21 02:05:21;;;;;;;39.28;19.23;;;;;;;12.99;100.00;100585.00;5090907;28;20036;-65
2022/10/21 02:07:47;;;;;;;38.72;20.65;;;;;;;12.98;100.00;100580.59;5086934;28;20046;-63
2022/10/21 02:10:13;;;;;;;47.85;20.15;;;;;;;12.98;100.00;100577.94;5080492;28;20480;-64
2022/10/21 02:12:42;;;;;;;35.03;18.20;;;;;;;12.98;100.00;100570.03;5083016;28;20100;-64
2022/10/21 02:15:11;;;;;;;39.97;18.80;;;;;;;12.96;100.00;100577.06;5082754;28;20561;-65
2022/10/21 02:17:41;;;;;;;43.42;20.30;;;;;;;12.94;100.00;100570.91;5082081;28;20352;-66
2022/10/21 02:20:10;;;;;;;46.15;20.40;;;;;;;12.92;100.00;100567.38;5093188;28;20056;-65
2022/10/21 02:22:37;;;;;;;41.22;19.70;;;;;;;12.89;100.00;100556.81;5088282;28;20476;-65
2022/10/21 02:25:09;;;;;;;38.40;18.55;;;;;;;12.86;100.00;100556.78;5078068;28;20073;-65
2022/10/21 02:27:35;;;;;;;38.20;18.10;;;;;;;12.85;100.00;100553.28;5091364;28;20040;-65
2022/10/21 02:30:01;;;;;;;40.97;19.83;;;;;;;12.82;100.00;100556.78;5086472;28;20844;-65
2022/10/21 02:32:41;;;;;;;39.60;19.00;;;;;;;12.81;100.00;100556.78;5092855;28;20022;-65
2022/10/21 02:35:33;;;;;;;48.95;20.35;;;;;;;12.78;100.00;100546.22;5085432;28;20067;-65
2022/10/21 02:38:13;;;;;;;38.90;17.75;;;;;;;12.76;100.00;100553.25;5076954;28;20082;-65
2022/10/21 02:40:51;;;;;;;35.58;18.80;;;;;;;12.74;100.00;100550.63;5089927;28;20028;-65
2022/10/21 02:43:31;;;;;;;42.47;19.17;;;;;;;12.71;100.00;100541.78;5076886;28;20035;-65
2022/10/21 02:46:04;;;;;;;41.58;19.73;;;;;;;12.69;100.00;100541.78;5092941;28;20460;-65
2022/10/21 02:48:31;;;;;;;;;;;;;;;12.67;100.00;100538.28;5092260;28;20101;-64
2022/10/21 02:50:56;;;;;;;37.53;18.92;;;;;;;12.65;100.00;100546.16;5091976;28;19965;-65
2022/10/21 02:53:22;;;;;;;34.88;16.23;;;;;;;12.64;100.00;100548.81;5091891;28;20364;-65
2022/10/21 02:55:47;;;;;;;41.13;19.15;;;;;;;12.63;100.00;100553.22;5090196;28;20085;-65
2022/10/21 02:58:12;;;;;;;37.90;18.15;;;;;;;12.62;100.00;100550.56;5092188;28;20108;-66
2022/10/21 03:00:38;;;;;;;36.67;17.38;;;;;;;12.62;100.00;100545.28;5092167;28;20052;-64
2022/10/21 03:03:03;;;;;;;36.95;18.70;;;;;;;12.61;100.00;100544.41;5090855;28;20051;-65
2022/10/21 03:05:28;;;;;;;40.17;18.75;;;;;;;12.61;100.00;100544.41;5082849;28;20072;-65
2022/10/21 03:07:54;;;;;;;48.13;19.65;;;;;;;12.62;100.00;100540.03;5088646;28;20028;-65
2022/10/21 03:10:19;;;;;;;38.30;19.40;;;;;;;12.63;100.00;100541.78;5093536;28;20028;-66
2022/10/21 03:12:44;;;;;;;44.83;21.90;;;;;;;12.63;100.00;100549.72;5095145;28;20024;-65
2022/10/21 03:15:10;;;;;;;42.78;19.38;;;;;;;12.62;100.00;100545.28;5098660;28;20428;-65
2022/10/21 03:17:35;;;;;;;37.67;19.05;;;;;;;12.62;100.00;100545.28;5088602;28;20021;-65
2022/10/21 03:20:00;;;;;;;39.47;18.27;;;;;;;12.62;100.00;100542.66;5089549;28;20141;-65
2022/10/21 03:22:26;;;;;;;42.10;19.35;;;;;;;12.61;100.00;100538.25;5079494;28;20111;-65
2022/10/21 03:24:51;;;;;;;38.13;19.25;;;;;;;12.60;100.00;100536.47;5094604;28;20016;-65
2022/10/21 03:27:16;;;;;;;39.83;19.50;;;;;;;12.60;100.00;100541.75;5098294;28;20468;-65
2022/10/21 03:29:42;;;;;;;42.05;19.00;;;;;;;12.59;100.00;100540.88;5099086;28;20040;-65
2022/10/21 03:32:07;;;;;;;46.38;19.35;;;;;;;12.59;100.00;100538.25;5098761;28;20038;-65
2022/10/21 03:34:32;;;;;;;37.58;17.40;;;;;;;12.58;100.00;100533.84;5092654;28;20034;-66
2022/10/21 03:36:58;;;;;;;39.42;18.63;;;;;;;12.58;100.00;100535.59;5099395;28;20046;-65
2022/10/21 03:39:23;;;;;;;38.97;19.05;;;;;;;12.58;100.00;100522.41;5092617;28;20082;-65
2022/10/21 03:41:48;;;;;;;38.10;18.60;;;;;;;12.56;100.00;100518.88;5086628;28;20560;-65
2022/10/21 03:44:14;;;;;;;42.67;18.90;;;;;;;12.54;100.00;100520.63;5097303;28;20392;-65
2022/10/21 03:46:39;;;;;;;34.67;19.08;;;;;;;12.51;100.00;100516.22;5098656;28;20024;-65
2022/10/21 03:49:04;;;;;;;34.95;17.88;;;;;;;12.46;100.00;100512.69;5098313;28;20053;-66
2022/10/21 03:51:30;;;;;;;39.08;18.52;;;;;;;12.43;100.00;100513.56;5098508;28;20051;-65
2022/10/21 03:53:55;;;;;;;37.88;17.33;;;;;;;12.42;100.00;100511.78;5093785;28;20032;-66
2022/10/21 03:56:20;;;;;;;37.08;17.95;;;;;;;12.42;100.00;100503.00;5097948;28;20056;-65
2022/10/21 03:58:46;;;;;;;39.45;18.85;;;;;;;12.41;100.00;100504.78;5093707;28;20082;-65
2022/10/21 04:01:12;;;;;;;36.10;17.85;;;;;;;12.41;100.00;100506.50;5098456;28;20039;-66
2022/10/21 04:03:38;;;;;;;31.95;16.38;;;;;;;12.38;100.00;100499.47;5098434;28;20075;-67
2022/10/21 04:06:03;;;;;;;40.95;17.55;;;;;;;12.37;100.00;100503.00;5099304;28;20040;-65
2022/10/21 04:08:28;;;;;;;36.92;16.77;;;;;;;12.37;100.00;100508.28;5093553;28;20016;-66
2022/10/21 04:10:56;;;;;;;32.25;16.60;;;;;;;12.33;100.00;100506.50;5084867;28;20084;-65
2022/10/21 04:13:21;;;;;;;42.35;17.02;;;;;;;12.32;100.00;100517.91;5098188;28;20060;-65
2022/10/21 04:15:47;;;;;;;39.42;16.50;;;;;;;12.31;100.00;100513.50;5098010;28;20054;-66
2022/10/21 04:18:12;;;;;;;30.77;16.17;;;;;;;12.30;100.00;100523.19;5091324;28;20466;-64
2022/10/21 04:20:37;;;;;;;35.80;15.98;;;;;;;12.31;100.00;100529.34;5098367;28;20024;-65
2022/10/21 04:23:02;;;;;;;35.83;16.33;;;;;;;12.34;100.00;100528.47;5093085;28;20070;-65
2022/10/21 04:25:28;;;;;;;38.45;17.00;;;;;;;12.37;100.00;100525.84;5093436;28;20031;-65
2022/10/21 04:27:53;;;;;;;33.03;15.82;;;;;;;12.38;100.00;100531.13;5092929;28;20040;-66
2022/10/21 04:30:18;;;;;;;33.75;15.77;;;;;;;12.38;100.00;100531.13;5087219;28;20020;-64
2022/10/21 04:32:44;;;;;;;31.75;14.13;;;;;;;12.40;100.00;100524.09;5091705;28;20236;-65
2022/10/21 04:35:09;;;;;;;28.75;14.32;;;;;;;12.40;100.00;100516.19;5095238;28;20059;-65
2022/10/21 04:37:38;;;;;;;37.80;16.60;;;;;;;12.41;100.00;100520.59;5095452;28;20141;-65
2022/10/21 04:40:05;;;;;;;40.38;14.68;;;;;;;12.41;100.00;100525.88;5092761;28;20024;-65
2022/10/21 04:42:30;;;;;;;29.20;15.48;;;;;;;12.42;100.00;100524.97;5079501;28;20035;-65
2022/10/21 04:44:56;;;;;;;27.83;15.45;;;;;;;12.41;100.00;100520.59;5077234;28;20028;-65
2022/10/21 04:47:21;;;;;;;31.38;14.65;;;;;;;12.41;100.00;100531.16;5084913;28;20029;-64
2022/10/21 04:49:46;;;;;;;33.20;15.85;;;;;;;12.39;100.00;100527.63;5088846;28;20398;-65
2022/10/21 04:52:12;;;;;;;26.50;14.73;;;;;;;12.37;100.00;100529.38;5092424;28;20120;-65
2022/10/21 04:54:37;;;;;;;31.42;14.73;;;;;;;12.34;100.00;100528.47;5090712;28;20482;-64
2022/10/21 04:57:02;;;;;;;33.78;16.85;;;;;;;12.31;100.00;100529.34;5095036;28;20047;-65
2022/10/21 04:59:28;;;;;;;33.70;15.27;;;;;;;12.27;100.00;100519.66;5093531;28;20024;-65
2022/10/21 05:01:53;;;;;;;35.63;15.73;;;;;;;12.23;100.00;100531.06;5086570;28;20537;-64
2022/10/21 05:04:18;;;;;;;31.35;15.88;;;;;;;12.18;100.00;100527.53;5093687;28;20024;-65
2022/10/21 05:06:44;;;;;;;25.98;14.07;;;;;;;12.17;100.00;100531.03;5094408;28;20028;-65
2022/10/21 05:09:09;;;;;;;32.17;15.35;;;;;;;12.13;100.00;100531.00;5091071;28;20020;-65
2022/10/21 05:11:35;;;;;;;30.10;13.73;;;;;;;12.12;100.00;100533.66;5075285;28;20026;-65
2022/10/21 05:14:00;;;;;;;27.85;14.35;;;;;;;12.10;100.00;100531.00;5084060;28;20039;-64
2022/10/21 05:16:25;;;;;;;31.02;14.52;;;;;;;12.07;100.00;100531.00;5080790;28;20418;-65
2022/10/21 05:18:51;;;;;;;33.00;15.13;;;;;;;12.06;100.00;100523.06;5086763;28;20111;-66
2022/10/21 05:21:16;;;;;;;39.58;14.80;;;;;;;12.05;100.00;100527.47;5092384;28;20032;-66
2022/10/21 05:23:41;;;;;;;26.00;14.10;;;;;;;12.02;100.00;100516.00;5088388;28;20039;-65
2022/10/21 05:26:07;;;;;;;30.02;14.02;;;;;;;12.01;100.00;100520.41;5093492;28;20027;-66
2022/10/21 05:28:32;;;;;;;28.52;13.65;;;;;;;11.99;100.00;100516.88;5089723;28;20028;-65
2022/10/21 05:30:58;;;;;;;29.17;13.48;;;;;;;11.98;100.00;100520.41;5090010;28;20028;-65
2022/10/21 05:33:23;;;;;;;33.33;12.98;;;;;;;11.98;100.00;100518.63;5092973;28;20032;-65
2022/10/21 05:36:00;;;;;;;30.45;14.02;;;;;;;11.97;100.00;100516.00;5082446;28;20016;-65
2022/10/21 05:38:27;;;;;;;28.85;13.43;;;;;;;11.93;100.00;100517.69;5090728;28;20459;-65
2022/10/21 05:40:52;;;;;;;25.10;12.57;;;;;;;11.93;100.00;100522.97;5090851;28;20068;-65
2022/10/21 05:43:18;;;;;;;32.00;12.93;;;;;;;11.93;100.00;100527.38;5089770;28;20082;-65
2022/10/21 05:45:43;;;;;;;32.45;14.52;;;;;;;11.90;100.00;100516.81;5087461;28;20024;-65
2022/10/21 05:48:08;;;;;;;38.80;13.93;;;;;;;11.90;100.00;100516.81;5091474;28;20028;-65
2022/10/21 05:50:34;;;;;;;32.15;13.88;;;;;;;11.87;100.00;100507.13;5085413;28;20103;-65
2022/10/21 05:52:59;;;;;;;35.28;14.15;;;;;;;11.88;100.00;100513.25;5074846;28;20067;-65
2022/10/21 05:55:24;;;;;;;30.17;13.77;;;;;;;11.86;100.00;100515.03;5093285;28;20027;-67
2022/10/21 05:57:50;;;;;;;26.42;11.63;;;;;;;11.85;100.00;100505.34;5093930;28;20044;-65
2022/10/21 06:00:15;;;;;;;25.35;12.85;;;;;;;11.85;100.00;100497.44;5088275;28;20052;-65
2022/10/21 06:02:40;;;;;;;25.13;12.00;;;;;;;11.84;100.00;100507.06;5081064;28;20115;-65
2022/10/21 06:05:06;;;;;;;23.80;11.60;;;;;;;11.84;100.00;100509.72;5093770;28;20032;-65
2022/10/21 06:07:32;;;;;;;27.85;12.73;;;;;;;11.81;100.00;100512.34;5093300;28;20028;-66
2022/10/21 06:09:57;;;;;;;30.95;11.93;;;;;;;11.78;100.00;100518.47;5077810;28;20108;-66
2022/10/21 06:12:22;;;;;;;20.35;10.95;;;;;;;11.75;100.00;100518.47;5081295;28;20097;-65
2022/10/21 06:14:48;;;;;;;24.55;12.73;;;;;;;11.74;100.00;100513.19;5092934;28;20051;-65
2022/10/21 06:17:13;;;;;;;25.65;11.35;;;;;;;11.73;100.00;100509.66;5093954;28;20099;-65
2022/10/21 06:19:38;;;;;;;27.75;11.18;;;;;;;11.70;100.00;100514.91;5094315;28;20032;-65
2022/10/21 06:22:04;;;;;;;25.55;11.60;;;;;;;11.67;100.00;100514.91;5083246;28;20031;-65
2022/10/21 06:24:29;;;;;;;25.10;10.27;;;;;;;11.63;100.00;100515.75;5078264;28;20030;-64
2022/10/21 06:26:54;;;;;;;22.88;10.88;;;;;;;11.62;100.00;100519.25;5091508;28;20379;-66
2022/10/21 06:29:20;;;;;;;24.60;11.05;;;;;;;11.60;100.00;100524.50;5079256;28;20021;-66
2022/10/21 06:31:45;;;;;;;32.65;11.30;;;;;;;11.61;100.00;100514.84;5082834;28;20106;-65
2022/10/21 06:34:11;;;;;;;27.42;12.30;;;;;;;11.62;100.00;100514.88;5084481;28;20033;-65
2022/10/21 06:36:37;;;;;;;25.80;12.07;;;;;;;11.66;100.00;100507.84;5075899;28;20020;-65
2022/10/21 06:39:03;;;;;;;28.70;11.77;;;;;;;11.71;100.00;100497.34;5073672;28;20028;-64
2022/10/21 06:41:28;;;;;;;24.27;11.38;;;;;;;11.75;100.00;100499.13;5071852;28;20027;-65
2022/10/21 06:43:54;;;;;;;27.77;12.73;;;;;;;11.77;100.00;100508.81;5079217;28;20024;-64
2022/10/21 06:46:19;;;;;;;28.67;12.75;;;;;;;11.80;100.00;100508.84;5085536;28;20357;-66
2022/10/21 06:48:45;;;;;;;25.42;12.52;;;;;;;11.84;100.00;100509.72;5092146;28;20096;-66
2022/10/21 06:51:16;;;;;;;24.50;12.13;;;;;;;11.87;100.00;100511.50;5093191;28;20020;-66
2022/10/21 06:53:42;;;;;;;24.75;11.10;;;;;;;11.89;100.00;100515.03;5091267;28;20035;-66
2022/10/21 06:56:11;;;;;;;29.70;11.80;;;;;;;11.89;100.00;100513.25;5089558;28;20052;-66
2022/10/21 06:58:38;;;;;;;22.90;12.00;;;;;;;11.91;100.00;100513.28;5086269;28;20066;-66
2022/10/21 07:01:26;;;;;;;28.73;11.73;;;;;;;11.91;100.00;100521.19;5075419;28;20036;-65
2022/10/21 07:03:55;;;;;;;26.00;11.25;;;;;;;11.89;100.00;100523.81;5084949;28;20060;-66
2022/10/21 07:06:21;;;;;;;31.58;12.43;;;;;;;11.91;100.00;100521.19;5085607;28;20057;-66
2022/10/21 07:08:46;;;;;;;30.55;12.63;;;;;;;11.93;100.00;100516.81;5081124;28;20035;-66
2022/10/21 07:11:13;;;;;;;30.25;12.80;;;;;;;11.95;100.00;100523.91;5078807;28;20024;-65
2022/10/21 07:13:39;;;;;;;26.15;12.05;;;;;;;11.98;100.00;100526.53;5086184;28;20028;-67
2022/10/21 07:16:14;;;;;;;28.38;12.25;;;;;;;12.01;100.00;100540.63;5078971;28;20476;-66
2022/10/21 07:18:39;;;;;;;26.77;13.02;;;;;;;12.01;100.00;100536.22;5096113;28;20087;-66
2022/10/21 07:21:07;;;;;;;32.33;14.27;;;;;;;12.01;100.00;100546.78;5083450;28;20078;-66
2022/10/21 07:23:34;;;;;;;29.80;12.90;;;;;;;12.01;100.00;100546.78;5090068;28;20036;-66
2022/10/21 07:26:03;;;;;;;27.92;12.48;;;;;;;12.02;100.00;100556.47;5081790;28;20029;-66
2022/10/21 07:28:29;;;;;;;33.50;13.27;;;;;;;12.04;100.00;100562.59;5083755;28;20491;-65
2022/10/21 07:30:54;;;;;;;32.55;13.02;;;;;;;12.06;100.00;100557.34;5087986;28;20033;-66
2022/10/21 07:33:20;;;;;;;29.98;12.70;;;;;;;12.09;100.00;100558.25;5071310;28;20519;-66
2022/10/21 07:35:45;;;;;;;25.65;12.40;;;;;;;12.11;100.00;100569.69;5074332;28;20473;-66
2022/10/21 07:38:11;;;;;;;30.50;12.75;;;;;;;12.13;100.00;100570.56;5073114;28;20028;-65
2022/10/21 07:40:41;;;;;;;28.77;12.93;;;;;;;12.17;100.00;100565.31;5072787;28;20107;-65
2022/10/21 07:43:07;;;;;;;24.30;12.25;;;;;;;12.18;100.00;100560.06;5071479;28;20033;-65
2022/10/21 07:45:33;;;;;;;27.90;13.25;;;;;;;12.23;100.00;100563.59;5077764;28;20115;-65
2022/10/21 07:47:58;;;;;;;29.77;13.27;;;;;;;12.25;100.00;100566.22;5072755;28;20104;-65
2022/10/21 07:50:24;;;;;;;27.55;12.20;;;;;;;12.30;100.00;100569.78;5088998;28;20081;-65
2022/10/21 07:52:49;;;;;;;23.50;11.43;;;;;;;12.34;100.00;100563.66;5093007;28;20043;-65
2022/10/21 07:55:16;;;;;;;28.10;12.73;;;;;;;12.35;100.00;100573.34;5092798;28;20032;-66
2022/10/21 07:57:43;;;;;;;21.98;12.57;;;;;;;12.37;100.00;100582.16;5094592;28;20487;-65
2022/10/21 08:00:10;;;;;;;30.80;13.32;;;;;;;12.42;100.00;100585.66;5096697;28;20024;-64
2022/10/21 08:02:37;;;;;;;25.38;11.43;;;;;;;12.44;100.00;100576.03;5093295;28;20043;-66
2022/10/21 08:05:03;;;;;;;25.23;12.35;;;;;;;12.47;100.00;100573.38;5096506;28;20024;-65
2022/10/21 08:07:30;;;;;;;31.20;12.30;;;;;;;12.51;100.00;100579.56;5094141;28;20028;-65
2022/10/21 08:09:56;;;;;;;23.13;12.48;;;;;;;12.53;100.00;100583.09;5096355;28;20126;-65
2022/10/21 08:12:22;;;;;;;27.08;12.50;;;;;;;12.56;100.00;100577.84;5096474;28;20075;-65
2022/10/21 08:14:47;;;;;;;27.58;12.65;;;;;;;12.57;100.00;100573.44;5094629;28;20035;-65
2022/10/21 08:17:13;;;;;;;24.25;11.73;;;;;;;12.58;100.00;100564.63;5096510;28;20020;-65
2022/10/21 08:19:38;;;;;;;26.65;12.00;;;;;;;12.60;100.00;100562.88;5095697;28;20127;-65
2022/10/21 08:22:03;;;;;;;22.17;11.45;;;;;;;12.64;100.00;100569.94;5095194;28;20102;-65
2022/10/21 08:24:29;;;;;;;28.23;12.20;;;;;;;12.65;100.00;100564.66;5096132;28;20031;-67
2022/10/21 08:26:54;;;;;;;23.73;10.80;;;;;;;12.70;100.00;100563.81;5077041;28;20020;-65
2022/10/21 08:29:19;;;;;;;26.95;11.98;;;;;;;12.72;100.00;100562.91;5075796;28;20029;-65
2022/10/21 08:31:45;;;;;;;19.75;11.18;;;;;;;12.76;100.00;100567.31;5082468;28;20051;-64
2022/10/21 08:34:10;;;;;;;20.95;10.75;;;;;;;12.80;100.00;100570.88;5093440;28;20031;-65
2022/10/21 08:36:37;;;;;;;30.38;12.93;;;;;;;12.84;100.00;100574.41;5093401;28;20012;-65
2022/10/21 08:39:02;;;;;;;25.88;12.57;;;;;;;12.86;100.00;100583.19;5095634;28;20031;-65
2022/10/21 08:41:28;;;;;;;26.45;12.30;;;;;;;12.88;100.00;100584.09;5077341;28;20023;-65
2022/10/21 08:44:00;;;;;;;24.25;12.98;;;;;;;12.94;100.00;100584.09;5093369;28;20036;-65
2022/10/21 08:46:32;;;;;;;26.65;11.93;;;;;;;12.99;100.00;100582.34;5076140;28;20040;-66
2022/10/21 08:49:05;;;;;;;23.08;12.00;;;;;;;13.05;100.00;100587.66;5075403;28;20099;-65
2022/10/21 08:51:38;;;;;;;26.48;12.35;;;;;;;13.07;100.00;100580.63;5095779;28;20422;-65
2022/10/21 08:54:11;;;;;;;28.15;12.38;;;;;;;13.11;100.00;100563.03;5095668;28;20020;-65
2022/10/21 08:56:36;;;;;;;21.50;11.70;;;;;;;13.18;100.00;100562.13;5091574;28;20040;-65
2022/10/21 08:59:02;;;;;;;26.92;11.73;;;;;;;13.24;100.00;100577.13;5087842;28;20030;-65
2022/10/21 09:01:31;;;;;;;28.67;10.85;;;;;;;13.27;100.00;100570.09;5090626;28;20508;-66
2022/10/21 09:04:07;;;;;;;22.00;11.18;;;;;;;13.32;100.00;100575.34;5084944;28;20083;-66
2022/10/21 09:06:47;;;;;;;26.50;10.57;;;;;;;13.39;100.00;100571.91;5094284;28;20128;-65
2022/10/21 09:09:28;;;;;;;28.45;10.80;;;;;;;13.45;100.00;100573.66;5078452;28;20071;-65
2022/10/21 09:12:01;;;;;;;19.92;10.27;;;;;;;13.49;100.00;100563.06;5074938;28;20392;-65
2022/10/21 09:14:49;;;;;;;14.25;9.27;;;;;;;13.58;100.00;100562.19;5088324;28;20024;-67
2022/10/21 09:17:40;;;;;;;22.40;10.05;;;;;;;13.66;100.00;100571.00;5087511;28;20028;-65
2022/10/21 09:20:20;;;;;;;22.38;10.95;;;;;;;13.72;100.00;100575.41;5075158;28;20053;-66
2022/10/21 09:23:02;;;;;;;21.23;11.40;;;;;;;13.82;100.00;100571.88;5074908;28;20519;-65
2022/10/21 09:25:30;;;;;;;25.52;10.57;;;;;;;13.91;100.00;100570.09;5084015;28;20073;-65
2022/10/21 09:27:56;;;;;;;18.85;10.60;;;;;;;13.97;100.00;100586.84;5093616;28;20085;-66
2022/10/21 09:30:22;;;;;;;21.17;9.70;;;;;;;14.02;100.00;100589.47;5094796;28;20040;-66
2022/10/21 09:32:49;;;;;;;28.48;11.02;;;;;;;14.11;100.00;100592.09;5094846;28;20016;-66
2022/10/21 09:35:24;;;;;;;23.23;9.18;;;;;;;14.19;100.00;100591.19;5078288;28;20028;-66
2022/10/21 09:38:18;;;;;;;25.40;9.77;;;;;;;14.27;100.00;100594.69;5074618;28;20020;-66
2022/10/21 09:40:46;;;;;;;20.67;9.57;;;;;;;14.34;100.00;100585.88;5047915;28;20028;-65
2022/10/21 09:43:23;;;;;;;18.75;8.90;;;;;;;14.44;100.00;100586.72;5074607;28;20103;-65
2022/10/21 09:45:49;;;;;;;21.23;8.73;;;;;;;14.54;100.00;100592.88;5074749;28;20036;-64
2022/10/21 09:48:24;;;;;;;20.50;8.73;;;;;;;14.54;100.00;100582.28;5082390;28;20020;-66
2022/10/21 09:51:03;;;;;;;17.45;8.50;;;;;;;14.66;100.00;100582.25;5092411;28;20077;-67
2022/10/21 09:53:44;;;;;;;15.38;7.93;;;;;;;14.78;100.00;100576.03;5089687;28;20028;-66
2022/10/21 09:56:17;;;;;;;18.58;8.15;;;;;;;14.93;100.00;100567.09;5094155;28;20504;-66
2022/10/21 09:58:47;;;;;;;22.90;8.13;;;;;;;15.14;100.00;100574.06;5086436;28;20040;-67
2022/10/21 10:01:18;;;;;;;15.43;7.22;;;;;;;15.25;100.00;100582.81;5074039;28;20020;-67
2022/10/21 10:03:47;;;;;;;14.07;6.43;;;;;;;15.37;100.00;100578.28;5079394;28;20031;-65
2022/10/21 10:06:28;;;;;;;19.13;6.65;;;;;;;15.53;100.00;100585.22;5090563;28;20055;-65
2022/10/21 10:09:22;;;;;;;18.30;6.80;;;;;;;15.83;100.00;100591.22;5092859;28;20471;-66
2022/10/21 10:11:59;;;;;;;14.00;5.35;;;;;;;16.04;100.00;100584.81;5094008;28;20107;-66
2022/10/21 10:14:26;;;;;;;12.13;4.60;;;;;;;16.32;100.00;100592.50;5088871;28;20030;-67
2022/10/21 10:16:51;;;;;;;16.02;5.10;;;;;;;16.51;100.00;100602.00;5081175;28;20435;-67
2022/10/21 10:19:26;;;;;;;8.70;4.10;;;;;;;16.74;100.00;100592.88;5092493;28;20063;-66
2022/10/21 10:22:10;;;;;;;7.53;3.53;;;;;;;17.07;100.00;100590.69;5093249;28;20058;-67
2022/10/21 10:24:39;;;;;;;9.02;4.45;;;;;;;17.43;100.00;100591.03;5085664;28;20395;-67
2022/10/21 10:27:10;;;;;;;15.57;4.18;;;;;;;17.78;100.00;100599.31;5055904;28;20028;-65
2022/10/21 10:29:36;;;;;;;12.57;4.07;;;;;;;18.04;100.00;100585.56;5083707;28;20032;-66
2022/10/21 10:32:03;;;;;;;11.05;3.30;;;;;;;18.28;100.00;100586.03;5085031;28;20029;-66
2022/10/21 10:34:32;;;;;;;7.00;3.45;;;;;;;18.60;100.00;100589.81;5073255;28;20093;-67
2022/10/21 10:37:05;;;;;;;10.43;3.22;;;;;;;18.87;100.00;100586.56;5073647;28;20099;-66
2022/10/21 10:39:33;;;;;;;11.80;3.60;;;;;;;18.65;100.00;100596.81;5085644;28;20032;-66
2022/10/21 10:42:00;;;;;;;5.97;2.67;;;;;;;18.74;100.00;100595.75;5093378;28;20035;-66
2022/10/21 10:44:39;;;;;;;9.20;3.33;;;;;;;18.85;100.00;100591.03;5093224;28;20084;-67
2022/10/21 10:47:10;;;;;;;7.32;2.90;;;;;;;19.08;100.00;100597.69;5092624;28;20085;-66
2022/10/21 10:49:38;;;;;;;5.18;2.55;;;;;;;19.38;100.00;100596.13;5081052;28;20055;-66
2022/10/21 10:52:09;;;;;;;6.68;2.80;;;;;;;19.38;100.00;100597.91;5073468;28;20499;-66
2022/10/21 10:54:37;;;;;;;9.45;2.80;;;;;;;19.69;100.00;100607.81;5081588;28;20375;-66
2022/10/21 10:57:09;;;;;;;7.57;2.63;;;;;;;19.92;100.00;100611.75;5085212;28;20048;-66
2022/10/21 10:59:45;;;;;;;9.43;2.90;;;;;;;20.20;100.00;100611.88;5073457;28;20035;-66
2022/10/21 11:02:11;;;;;;;8.10;2.97;;;;;;;20.35;100.00;100605.25;5073021;28;20032;-65
2022/10/21 11:04:55;;;;;;;7.70;2.88;;;;;;;20.13;100.00;100604.94;5084698;28;20537;-66
2022/10/21 11:07:32;;;;;;;9.60;2.63;;;;;;;20.00;100.00;100607.94;5091833;28;20028;-67
2022/10/21 11:10:12;;;;;;;6.68;2.80;;;;;;;19.38;100.00;100601.47;5078842;28;20032;-66
2022/10/21 11:12:37;;;;;;;3.97;2.60;;;;;;;19.06;100.00;100602.19;5088790;28;20050;-66